Time;durP1;ratioP1;P1;durP2;ratioP2;P2;SDS_P1;SDS_P2;PMS_P1;PMS_P2;Temp;Humidity;BMP_temperature;BMP_pressure;BME280_temperature;BME280_humidity;BME280_pressure;Samples;Min_cycle;Max_cycle;Signal;HPM_P1;HPM_P2
2022/03/22 00:00:10;;;;;;;12.07;5.93;;;;;;;;;;5031401;28;20040;-71
2022/03/22 00:02:37;;;;;;;6.18;5.00;;;;;;;;;;5035770;28;20025;-71
2022/03/22 00:05:03;;;;;;;6.63;5.13;;;;;;;;;;5032120;28;20477;-71
2022/03/22 00:07:31;;;;;;;6.80;5.25;;;;;;;;;;5032822;28;20052;-71
2022/03/22 00:09:57;;;;;;;9.50;6.05;;;;;;;;;;5037314;28;20365;-71
2022/03/22 00:12:23;;;;;;;8.88;6.30;;;;;;;;;;5035602;28;20109;-71
2022/03/22 00:14:50;;;;;;;6.22;5.60;;;;;;;;;;5032638;28;20594;-71
2022/03/22 00:17:16;;;;;;;6.57;5.30;;;;;;;;;;5036963;28;20041;-71
2022/03/22 00:19:42;;;;;;;5.82;5.00;;;;;;;;;;5033217;28;20045;-71
2022/03/22 00:22:11;;;;;;;10.43;5.50;;;;;;;;;;5034478;28;20028;-71
2022/03/22 00:24:38;;;;;;;6.53;5.07;;;;;;;;;;5034784;28;20032;-71
2022/03/22 00:27:04;;;;;;;11.07;5.35;;;;;;;;;;5034510;28;20055;-71
2022/03/22 00:29:30;;;;;;;6.88;5.35;;;;;;;;;;5034711;28;20029;-70
2022/03/22 00:31:57;;;;;;;7.78;5.70;;;;;;;;;;5034724;28;20506;-71
2022/03/22 00:34:24;;;;;;;7.22;5.50;;;;;;;;;;5037457;28;20064;-71
2022/03/22 00:36:50;;;;;;;5.63;4.78;;;;;;;;;;5031757;28;20025;-71
2022/03/22 00:39:16;;;;;;;6.03;4.97;;;;;;;;;;5035458;28;20052;-70
2022/03/22 00:41:43;;;;;;;5.38;4.88;;;;;;;;;;5032973;28;20033;-70
2022/03/22 00:44:09;;;;;;;10.25;6.20;;;;;;;;;;5031658;28;20401;-71
2022/03/22 00:46:36;;;;;;;13.65;10.15;;;;;;;;;;5034586;28;20489;-70
2022/03/22 00:49:04;;;;;;;9.93;7.97;;;;;;;;;;5035619;28;20121;-70
2022/03/22 00:51:30;;;;;;;8.38;6.72;;;;;;;;;;5036533;28;20148;-70
2022/03/22 00:54:02;;;;;;;7.20;5.80;;;;;;;;;;5034670;28;20065;-70
2022/03/22 00:56:31;;;;;;;7.03;6.00;;;;;;;;;;5034654;28;20032;-71
2022/03/22 01:01:42;;;;;;;6.95;5.93;;;;;;;;;;5042121;28;20096;-70
2022/03/22 01:04:09;;;;;;;7.15;6.10;;;;;;;;;;5035798;28;20022;-70
2022/03/22 01:06:35;;;;;;;6.15;5.55;;;;;;;;;;5036208;28;20032;-70
2022/03/22 01:09:01;;;;;;;8.52;5.70;;;;;;;;;;5036019;28;20033;-70
2022/03/22 01:11:28;;;;;;;6.72;5.78;;;;;;;;;;5039739;28;20024;-70
2022/03/22 01:13:55;;;;;;;6.60;5.88;;;;;;;;;;5035680;28;20624;-70
2022/03/22 01:16:21;;;;;;;8.38;6.13;;;;;;;;;;5035968;28;20053;-70
2022/03/22 01:18:48;;;;;;;6.78;5.03;;;;;;;;;;5037568;28;20060;-70
2022/03/22 01:21:14;;;;;;;9.98;5.68;;;;;;;;;;5038976;28;20029;-70
2022/03/22 01:23:40;;;;;;;6.65;5.50;;;;;;;;;;5040767;28;20090;-70
2022/03/22 01:26:06;;;;;;;7.70;5.47;;;;;;;;;;5043768;28;20032;-70
2022/03/22 01:28:32;;;;;;;6.38;5.65;;;;;;;;;;5044590;28;20025;-70
2022/03/22 01:31:00;;;;;;;12.98;5.82;;;;;;;;;;5035307;28;20033;-71
2022/03/22 01:33:26;;;;;;;7.97;5.90;;;;;;;;;;5036662;28;20028;-71
2022/03/22 01:35:52;;;;;;;9.82;5.85;;;;;;;;;;5042027;28;20030;-70
2022/03/22 01:38:19;;;;;;;7.97;5.60;;;;;;;;;;5038492;28;20040;-70
2022/03/22 01:40:45;;;;;;;7.10;5.35;;;;;;;;;;5045319;28;20028;-70
2022/03/22 01:43:12;;;;;;;7.88;5.68;;;;;;;;;;5039309;28;20028;-70
2022/03/22 01:45:38;;;;;;;6.85;4.95;;;;;;;;;;5039909;28;20071;-71
2022/03/22 01:48:05;;;;;;;5.60;4.97;;;;;;;;;;5043315;28;20087;-70
2022/03/22 01:50:31;;;;;;;7.97;5.47;;;;;;;;;;5042801;28;20040;-70
2022/03/22 01:52:59;;;;;;;8.00;5.60;;;;;;;;;;5039650;28;20029;-70
2022/03/22 01:55:25;;;;;;;5.68;5.00;;;;;;;;;;5038806;28;20642;-70
2022/03/22 01:57:52;;;;;;;5.50;5.00;;;;;;;;;;5042952;28;20028;-70
2022/03/22 02:00:19;;;;;;;5.25;4.68;;;;;;;;;;5042257;28;20058;-72
2022/03/22 02:08:18;;;;;;;5.63;5.05;;;;;;;;;;5039054;28;20409;-70
2022/03/22 02:10:44;;;;;;;5.10;4.60;;;;;;;;;;5041407;28;20485;-70
2022/03/22 02:13:11;;;;;;;6.95;4.93;;;;;;;;;;5038739;28;20033;-70
2022/03/22 02:15:37;;;;;;;8.00;4.93;;;;;;;;;;5042038;28;20071;-70
2022/03/22 02:18:03;;;;;;;5.00;4.45;;;;;;;;;;5041674;28;20025;-70
2022/03/22 02:20:30;;;;;;;5.30;4.38;;;;;;;;;;5037266;28;20033;-70
2022/03/22 02:23:15;;;;;;;5.15;4.57;;;;;;;;;;5038981;28;20025;-70
2022/03/22 02:25:41;;;;;;;5.15;4.65;;;;;;;;;;5042868;28;20029;-71
2022/03/22 02:28:08;;;;;;;6.85;4.97;;;;;;;;;;5043244;28;20033;-70
2022/03/22 02:30:34;;;;;;;5.85;5.00;;;;;;;;;;5036901;28;20024;-71
2022/03/22 02:33:01;;;;;;;6.15;4.90;;;;;;;;;;5037862;28;20063;-70
2022/03/22 02:35:28;;;;;;;5.38;4.70;;;;;;;;;;5040755;28;20029;-71
2022/03/22 02:37:54;;;;;;;7.13;5.38;;;;;;;;;;5036726;28;20426;-70
2022/03/22 02:40:21;;;;;;;6.35;5.25;;;;;;;;;;5038553;28;20044;-71
2022/03/22 02:42:50;;;;;;;6.97;5.68;;;;;;;;;;5038954;28;20086;-71
2022/03/22 02:45:17;;;;;;;6.75;5.80;;;;;;;;;;5038914;28;20029;-70
2022/03/22 02:47:43;;;;;;;6.97;5.75;;;;;;;;;;5040721;28;20036;-71
2022/03/22 02:50:10;;;;;;;6.97;5.75;;;;;;;;;;5040876;28;20044;-71
2022/03/22 02:52:37;;;;;;;6.13;5.50;;;;;;;;;;5041314;28;20508;-71
2022/03/22 02:55:04;;;;;;;21.58;6.90;;;;;;;;;;5035846;28;20039;-69
2022/03/22 02:57:30;;;;;;;7.05;5.72;;;;;;;;;;5038470;28;20031;-70
2022/03/22 02:59:57;;;;;;;6.22;5.63;;;;;;;;;;5036005;28;20040;-71
2022/03/22 03:02:23;;;;;;;6.45;5.28;;;;;;;;;;5034987;28;20118;-70
2022/03/22 03:04:49;;;;;;;8.25;5.32;;;;;;;;;;5033840;28;20033;-72
2022/03/22 03:07:15;;;;;;;5.95;5.07;;;;;;;;;;5031159;28;20021;-70
2022/03/22 03:09:41;;;;;;;7.90;5.03;;;;;;;;;;5033544;28;20033;-70
2022/03/22 03:12:07;;;;;;;8.27;5.10;;;;;;;;;;5035443;28;20033;-71
2022/03/22 03:14:40;;;;;;;5.80;5.07;;;;;;;;;;5029569;28;20054;-70
2022/03/22 03:17:06;;;;;;;;;;;;;;;;;;5034175;28;20163;-69
2022/03/22 03:19:32;;;;;;;5.38;4.47;;;;;;;;;;5032355;28;19994;-69
2022/03/22 03:21:58;;;;;;;7.05;4.60;;;;;;;;;;5030132;28;20036;-70
2022/03/22 03:24:24;;;;;;;7.00;5.15;;;;;;;;;;5031557;28;20608;-70
2022/03/22 03:26:50;;;;;;;7.53;4.50;;;;;;;;;;5036847;28;20432;-70
2022/03/22 03:29:17;;;;;;;7.07;4.70;;;;;;;;;;5031092;28;20030;-70
2022/03/22 03:31:43;;;;;;;5.13;4.32;;;;;;;;;;5042117;28;20443;-71
2022/03/22 03:34:09;;;;;;;4.60;4.07;;;;;;;;;;5031515;28;20040;-70
2022/03/22 03:36:36;;;;;;;6.57;4.80;;;;;;;;;;5033454;28;20025;-70
2022/03/22 03:39:03;;;;;;;5.38;4.88;;;;;;;;;;5031187;28;20049;-70
2022/03/22 03:47:11;;;;;;;7.13;5.65;;;;;;;;;;5033908;28;20052;-70
2022/03/22 03:49:45;;;;;;;6.15;5.30;;;;;;;;;;5028574;28;20041;-71
2022/03/22 03:52:15;;;;;;;7.10;5.78;;;;;;;;;;5031744;28;20401;-71
2022/03/22 03:54:42;;;;;;;6.82;5.82;;;;;;;;;;5034688;28;20034;-70
2022/03/22 03:57:09;;;;;;;6.95;5.18;;;;;;;;;;5032708;28;20107;-71
2022/03/22 03:59:36;;;;;;;10.15;5.45;;;;;;;;;;5033687;28;20411;-70
2022/03/22 04:02:03;;;;;;;12.63;4.85;;;;;;;;;;5033684;28;20032;-70
2022/03/22 04:04:30;;;;;;;12.40;5.07;;;;;;;;;;5031849;28;20040;-70
2022/03/22 04:06:56;;;;;;;5.47;4.55;;;;;;;;;;5031062;28;20025;-70
2022/03/22 04:09:22;;;;;;;7.10;5.32;;;;;;;;;;5034069;28;20036;-71
2022/03/22 04:11:48;;;;;;;5.75;4.93;;;;;;;;;;5029475;28;20030;-70
2022/03/22 04:14:15;;;;;;;4.85;4.07;;;;;;;;;;5031254;28;20048;-70
2022/03/22 04:16:41;;;;;;;6.45;4.82;;;;;;;;;;5031466;28;20600;-70
2022/03/22 04:19:08;;;;;;;5.30;4.53;;;;;;;;;;5030066;28;20052;-70
2022/03/22 04:21:37;;;;;;;6.28;4.47;;;;;;;;;;5028757;28;20029;-70
2022/03/22 04:24:10;;;;;;;7.25;4.70;;;;;;;;;;5029224;28;20490;-70
2022/03/22 04:26:37;;;;;;;5.70;4.60;;;;;;;;;;5027280;28;20508;-71
2022/03/22 04:34:33;;;;;;;6.05;4.75;;;;;;;;;;5025160;28;20132;-70
2022/03/22 04:37:00;;;;;;;5.55;4.95;;;;;;;;;;5030156;28;20025;-70
2022/03/22 04:39:27;;;;;;;5.90;4.60;;;;;;;;;;5029556;28;20045;-70
2022/03/22 04:41:53;;;;;;;5.68;4.28;;;;;;;;;;5027578;28;20026;-70
2022/03/22 04:44:20;;;;;;;6.68;5.15;;;;;;;;;;5031393;28;20038;-70
2022/03/22 04:46:46;;;;;;;9.70;5.80;;;;;;;;;;5029810;28;20049;-71
2022/03/22 04:49:12;;;;;;;5.28;4.38;;;;;;;;;;5030538;28;20021;-70
2022/03/22 04:57:09;;;;;;;5.68;5.07;;;;;;;;;;5029841;28;20044;-70
2022/03/22 04:59:35;;;;;;;9.73;5.70;;;;;;;;;;5030658;28;20083;-70
2022/03/22 05:02:01;;;;;;;6.75;5.30;;;;;;;;;;5029456;28;20035;-72
2022/03/22 05:04:27;;;;;;;7.88;5.53;;;;;;;;;;5030885;28;20025;-70
2022/03/22 05:06:54;;;;;;;6.72;5.22;;;;;;;;;;5028294;28;20018;-70
2022/03/22 05:09:20;;;;;;;6.20;5.28;;;;;;;;;;5030213;28;20025;-70
2022/03/22 05:11:46;;;;;;;7.25;5.38;;;;;;;;;;5027417;28;20029;-72
2022/03/22 05:14:12;;;;;;;6.20;5.20;;;;;;;;;;5029853;28;20060;-71
2022/03/22 05:16:39;;;;;;;5.72;4.82;;;;;;;;;;5029705;28;20037;-70
2022/03/22 05:19:05;;;;;;;6.20;4.60;;;;;;;;;;5024627;28;20456;-70
2022/03/22 05:21:31;;;;;;;5.50;4.60;;;;;;;;;;5030633;28;20025;-70
2022/03/22 05:23:58;;;;;;;5.85;4.65;;;;;;;;;;5027764;28;20056;-70
2022/03/22 05:26:27;;;;;;;5.57;4.90;;;;;;;;;;5028118;28;20409;-70
2022/03/22 05:28:53;;;;;;;6.45;5.05;;;;;;;;;;5030324;28;20365;-70
2022/03/22 05:31:21;;;;;;;6.45;5.47;;;;;;;;;;5026234;28;20034;-70
2022/03/22 05:33:48;;;;;;;13.10;6.20;;;;;;;;;;5031273;28;20075;-70
2022/03/22 05:36:14;;;;;;;5.47;4.45;;;;;;;;;;5027589;28;20056;-71
2022/03/22 05:38:41;;;;;;;6.13;4.88;;;;;;;;;;5030521;28;20067;-70
2022/03/22 05:41:08;;;;;;;7.22;5.43;;;;;;;;;;5027808;28;20417;-70
2022/03/22 05:43:35;;;;;;;7.50;5.75;;;;;;;;;;5031609;28;20021;-70
2022/03/22 05:46:02;;;;;;;5.82;5.22;;;;;;;;;;5035312;28;20060;-70
2022/03/22 05:48:29;;;;;;;7.75;5.55;;;;;;;;;;5035069;28;20027;-70
2022/03/22 05:50:55;;;;;;;7.35;6.03;;;;;;;;;;5032297;28;20060;-71
2022/03/22 05:53:21;;;;;;;7.60;5.20;;;;;;;;;;5033532;28;20033;-70
2022/03/22 05:55:47;;;;;;;7.65;6.40;;;;;;;;;;5037332;28;20025;-71
2022/03/22 05:58:14;;;;;;;9.10;6.43;;;;;;;;;;5032804;28;20037;-71
2022/03/22 06:00:40;;;;;;;10.02;7.55;;;;;;;;;;5035398;28;20044;-70
2022/03/22 06:03:06;;;;;;;14.23;7.65;;;;;;;;;;5034846;28;20018;-73
2022/03/22 06:05:33;;;;;;;11.05;8.05;;;;;;;;;;5035566;28;20061;-71
2022/03/22 06:07:59;;;;;;;13.07;8.48;;;;;;;;;;5033544;28;20029;-71
2022/03/22 06:10:27;;;;;;;13.90;9.05;;;;;;;;;;5031642;28;20449;-71
2022/03/22 06:12:54;;;;;;;9.40;7.88;;;;;;;;;;5032442;28;20083;-70
2022/03/22 06:15:25;;;;;;;20.55;9.90;;;;;;;;;;5031599;28;20049;-70
2022/03/22 06:18:10;;;;;;;16.17;9.18;;;;;;;;;;5028026;28;20021;-70
2022/03/22 06:20:37;;;;;;;15.15;8.50;;;;;;;;;;5031646;28;20040;-70
2022/03/22 06:23:05;;;;;;;10.57;7.43;;;;;;;;;;5032613;28;20033;-72
2022/03/22 06:25:31;;;;;;;13.85;8.20;;;;;;;;;;5028886;28;20502;-71
2022/03/22 06:27:58;;;;;;;13.48;8.07;;;;;;;;;;5032456;28;20025;-70
2022/03/22 06:30:25;;;;;;;16.50;9.07;;;;;;;;;;5033091;28;20250;-72
2022/03/22 06:32:52;;;;;;;18.45;8.57;;;;;;;;;;5029260;28;20068;-71
2022/03/22 06:35:19;;;;;;;14.27;9.55;;;;;;;;;;5032695;28;20031;-70
2022/03/22 06:37:46;;;;;;;16.88;10.43;;;;;;;;;;5029543;28;20056;-73
2022/03/22 06:40:14;;;;;;;12.43;9.02;;;;;;;;;;5031115;28;20783;-71
2022/03/22 06:42:40;;;;;;;13.70;10.13;;;;;;;;;;5031955;28;20105;-73
2022/03/22 06:45:07;;;;;;;14.30;9.23;;;;;;;;;;5031614;28;20025;-71
2022/03/22 06:47:34;;;;;;;10.20;8.48;;;;;;;;;;5028203;28;20030;-71
2022/03/22 06:50:01;;;;;;;16.58;11.18;;;;;;;;;;5029681;28;20433;-71
2022/03/22 06:52:27;;;;;;;14.15;8.98;;;;;;;;;;5032208;28;20371;-71
2022/03/22 06:54:54;;;;;;;13.85;8.90;;;;;;;;;;5029005;28;20036;-71
2022/03/22 06:57:20;;;;;;;13.30;10.20;;;;;;;;;;5030147;28;20032;-71
2022/03/22 06:59:46;;;;;;;16.17;13.15;;;;;;;;;;5030408;28;20120;-71
2022/03/22 07:02:12;;;;;;;18.65;15.00;;;;;;;;;;5030960;28;20026;-71
2022/03/22 07:04:38;;;;;;;17.67;14.60;;;;;;;;;;5031530;28;20025;-70
2022/03/22 07:07:05;;;;;;;15.52;12.50;;;;;;;;;;5030454;28;20030;-73
2022/03/22 07:09:31;;;;;;;13.15;10.90;;;;;;;;;;5028491;28;20060;-72
2022/03/22 07:11:58;;;;;;;13.98;10.13;;;;;;;;;;5036324;28;20470;-70
2022/03/22 07:14:25;;;;;;;12.60;10.23;;;;;;;;;;5027926;28;20520;-71
2022/03/22 07:16:52;;;;;;;23.30;10.13;;;;;;;;;;5039786;28;20036;-70
2022/03/22 07:19:19;;;;;;;11.35;10.07;;;;;;;;;;5030531;28;20041;-71
2022/03/22 07:21:46;;;;;;;14.77;10.85;;;;;;;;;;5032729;28;20053;-72
2022/03/22 07:24:13;;;;;;;11.45;9.65;;;;;;;;;;5030970;28;20659;-72
2022/03/22 07:26:40;;;;;;;8.60;6.63;;;;;;;;;;5036446;28;20060;-72
2022/03/22 07:29:06;;;;;;;7.00;5.90;;;;;;;;;;5034501;28;20029;-72
2022/03/22 07:31:41;;;;;;;5.78;4.97;;;;;;;;;;5031614;28;20030;-74
2022/03/22 07:34:11;;;;;;;5.82;5.22;;;;;;;;;;5036135;28;20031;-74
2022/03/22 07:36:39;;;;;;;20.13;4.75;;;;;;;;;;5034541;28;20051;-76
2022/03/22 07:39:06;;;;;;;8.25;5.00;;;;;;;;;;5030982;28;20280;-71
2022/03/22 07:41:34;;;;;;;6.60;4.53;;;;;;;;;;5036322;28;20091;-74
2022/03/22 07:44:01;;;;;;;6.00;4.90;;;;;;;;;;5031154;28;20037;-74
2022/03/22 07:46:28;;;;;;;5.32;4.60;;;;;;;;;;5032681;28;20024;-72
2022/03/22 07:48:54;;;;;;;7.53;5.47;;;;;;;;;;5033080;28;20032;-73
2022/03/22 07:54:05;;;;;;;6.78;5.15;;;;;;;;;;5037608;28;20035;-73
2022/03/22 07:56:32;;;;;;;5.00;4.50;;;;;;;;;;5036000;28;20025;-73
2022/03/22 07:59:00;;;;;;;7.60;5.60;;;;;;;;;;5037793;28;20068;-71
2022/03/22 08:01:26;;;;;;;5.70;5.20;;;;;;;;;;5029898;28;20033;-71
2022/03/22 08:03:53;;;;;;;5.53;4.47;;;;;;;;;;5032475;28;20103;-72
2022/03/22 08:06:19;;;;;;;7.80;6.57;;;;;;;;;;5034648;28;20037;-72
2022/03/22 08:08:45;;;;;;;6.55;5.72;;;;;;;;;;5032011;28;20018;-73
2022/03/22 08:11:12;;;;;;;7.30;6.38;;;;;;;;;;5034299;28;20263;-71
2022/03/22 08:13:38;;;;;;;6.90;5.38;;;;;;;;;;5030671;28;20017;-72
2022/03/22 08:16:05;;;;;;;6.78;5.47;;;;;;;;;;5032794;28;20560;-73
2022/03/22 08:18:31;;;;;;;5.97;5.28;;;;;;;;;;5034137;28;20036;-71
2022/03/22 08:20:58;;;;;;;6.60;5.35;;;;;;;;;;5029796;28;20026;-71
2022/03/22 08:23:24;;;;;;;7.70;4.68;;;;;;;;;;5034780;28;20029;-73
2022/03/22 08:25:51;;;;;;;6.90;5.28;;;;;;;;;;5033109;28;20129;-72
2022/03/22 08:28:18;;;;;;;8.40;5.30;;;;;;;;;;5033662;28;20117;-72
2022/03/22 08:30:44;;;;;;;10.00;7.00;;;;;;;;;;5035742;28;20024;-72
2022/03/22 08:33:10;;;;;;;6.60;5.72;;;;;;;;;;5033497;28;20071;-72
2022/03/22 08:35:47;;;;;;;7.60;5.80;;;;;;;;;;5032631;28;20035;-73
2022/03/22 08:38:19;;;;;;;7.20;5.75;;;;;;;;;;5032743;28;20025;-72
2022/03/22 08:40:45;;;;;;;6.88;5.70;;;;;;;;;;5033560;28;20484;-72
2022/03/22 08:43:11;;;;;;;6.53;5.85;;;;;;;;;;5035307;28;20040;-72
2022/03/22 08:45:38;;;;;;;6.90;5.20;;;;;;;;;;5031393;28;20031;-72
2022/03/22 08:48:09;;;;;;;5.78;4.93;;;;;;;;;;5034797;28;20101;-74
2022/03/22 08:50:36;;;;;;;6.07;5.03;;;;;;;;;;5035262;28;20044;-71
2022/03/22 08:53:02;;;;;;;8.80;5.72;;;;;;;;;;5030832;28;20036;-72
2022/03/22 08:55:29;;;;;;;7.68;5.90;;;;;;;;;;5035110;28;20374;-73
2022/03/22 08:57:55;;;;;;;7.82;5.25;;;;;;;;;;5034494;28;20612;-72
2022/03/22 09:00:22;;;;;;;12.20;6.43;;;;;;;;;;5031476;28;20049;-72
2022/03/22 09:02:49;;;;;;;14.40;9.30;;;;;;;;;;5035392;28;20056;-72
2022/03/22 09:08:01;;;;;;;7.38;5.63;;;;;;;;;;5033592;28;20496;-72
2022/03/22 09:10:28;;;;;;;5.80;5.22;;;;;;;;;;5034271;28;20629;-72
2022/03/22 09:12:55;;;;;;;6.55;5.28;;;;;;;;;;5035067;28;20078;-71
2022/03/22 09:15:23;;;;;;;7.38;5.47;;;;;;;;;;5032248;28;20057;-71
2022/03/22 09:17:49;;;;;;;5.65;5.05;;;;;;;;;;5033217;28;20028;-71
2022/03/22 09:20:16;;;;;;;6.63;5.10;;;;;;;;;;5044321;28;20382;-72
2022/03/22 09:22:43;;;;;;;7.18;4.90;;;;;;;;;;5036150;28;20029;-71
2022/03/22 09:25:09;;;;;;;6.80;5.45;;;;;;;;;;5036315;28;20029;-72
2022/03/22 09:27:36;;;;;;;7.30;5.20;;;;;;;;;;5038015;28;20032;-72
2022/03/22 09:30:03;;;;;;;6.40;5.40;;;;;;;;;;5037948;28;20050;-72
2022/03/22 09:32:29;;;;;;;6.05;5.03;;;;;;;;;;5034302;28;20494;-73
2022/03/22 09:34:55;;;;;;;6.68;5.40;;;;;;;;;;5039013;28;20531;-72
2022/03/22 09:37:21;;;;;;;8.40;5.15;;;;;;;;;;5036859;28;20022;-72
2022/03/22 09:39:47;;;;;;;8.20;5.70;;;;;;;;;;5035408;28;20092;-71
2022/03/22 09:42:14;;;;;;;10.98;4.90;;;;;;;;;;5038571;28;20088;-72
2022/03/22 09:44:40;;;;;;;7.90;5.50;;;;;;;;;;5035637;28;20021;-71
2022/03/22 09:47:07;;;;;;;6.20;5.30;;;;;;;;;;5037874;28;20515;-72
2022/03/22 09:49:33;;;;;;;6.50;4.90;;;;;;;;;;5036236;28;20458;-72
2022/03/22 09:52:02;;;;;;;7.00;5.03;;;;;;;;;;5035994;28;20037;-72
2022/03/22 09:54:29;;;;;;;5.88;5.05;;;;;;;;;;5040408;28;20410;-73
2022/03/22 09:56:55;;;;;;;7.32;5.18;;;;;;;;;;5037156;28;20021;-72
2022/03/22 09:59:21;;;;;;;6.72;4.88;;;;;;;;;;5037573;28;20037;-74
2022/03/22 10:01:47;;;;;;;5.82;4.80;;;;;;;;;;5033971;28;20021;-73
2022/03/22 10:04:14;;;;;;;5.80;4.70;;;;;;;;;;5038367;28;20490;-72
2022/03/22 10:06:57;;;;;;;5.18;4.60;;;;;;;;;;5036917;28;20463;-71
2022/03/22 10:09:28;;;;;;;6.32;5.30;;;;;;;;;;5036107;28;20030;-73
2022/03/22 10:11:54;;;;;;;8.32;5.13;;;;;;;;;;5034324;28;20503;-72
2022/03/22 10:14:20;;;;;;;5.63;4.93;;;;;;;;;;5038078;28;20553;-72
2022/03/22 10:16:51;;;;;;;6.97;5.28;;;;;;;;;;5035189;28;20482;-73
2022/03/22 10:19:22;;;;;;;9.18;6.63;;;;;;;;;;5036520;28;20088;-72
2022/03/22 10:21:48;;;;;;;6.10;5.50;;;;;;;;;;5038265;28;20017;-72
2022/03/22 10:24:15;;;;;;;7.32;5.10;;;;;;;;;;5035791;28;20113;-73
2022/03/22 10:26:44;;;;;;;7.03;6.00;;;;;;;;;;5035135;28;20027;-72
2022/03/22 10:29:11;;;;;;;6.95;5.35;;;;;;;;;;5045114;28;20021;-72
2022/03/22 10:31:39;;;;;;;6.35;5.25;;;;;;;;;;5033936;28;20036;-72
2022/03/22 10:34:06;;;;;;;9.32;5.18;;;;;;;;;;5037063;28;20021;-72
2022/03/22 10:36:36;;;;;;;7.28;5.75;;;;;;;;;;5035720;28;20087;-72
2022/03/22 10:39:04;;;;;;;8.63;5.53;;;;;;;;;;5034690;28;20029;-73
2022/03/22 10:41:37;;;;;;;6.88;5.22;;;;;;;;;;5036417;28;20086;-72
2022/03/22 10:44:23;;;;;;;9.18;5.47;;;;;;;;;;5035880;28;20032;-71
2022/03/22 10:46:50;;;;;;;5.82;5.22;;;;;;;;;;5037766;28;20481;-72
2022/03/22 10:49:17;;;;;;;6.35;5.75;;;;;;;;;;5034584;28;20515;-72
2022/03/22 10:51:48;;;;;;;5.15;4.63;;;;;;;;;;5036502;28;20021;-72
2022/03/22 10:54:17;;;;;;;6.30;5.32;;;;;;;;;;5044556;28;20033;-72
2022/03/22 10:56:54;;;;;;;8.27;5.40;;;;;;;;;;5034494;28;20103;-72
2022/03/22 10:59:24;;;;;;;6.28;4.80;;;;;;;;;;5033409;28;20038;-73
2022/03/22 11:01:52;;;;;;;5.78;4.97;;;;;;;;;;5034690;28;20018;-73
2022/03/22 11:04:19;;;;;;;6.65;5.25;;;;;;;;;;5036190;28;20025;-74
2022/03/22 11:06:49;;;;;;;7.55;5.40;;;;;;;;;;5034855;28;20128;-74
2022/03/22 11:09:15;;;;;;;8.27;4.85;;;;;;;;;;5034288;28;20079;-74
2022/03/22 11:11:43;;;;;;;7.38;5.28;;;;;;;;;;5036528;28;20013;-72
2022/03/22 11:14:11;;;;;;;17.23;5.40;;;;;;;;;;5036331;28;20111;-72
2022/03/22 11:16:37;;;;;;;6.72;5.25;;;;;;;;;;5034062;28;20025;-71
2022/03/22 11:19:04;;;;;;;7.10;4.90;;;;;;;;;;5036721;28;20094;-71
2022/03/22 11:21:30;;;;;;;7.28;5.45;;;;;;;;;;5033322;28;20025;-73
2022/03/22 11:24:23;;;;;;;7.32;4.97;;;;;;;;;;5034696;28;20025;-71
2022/03/22 11:26:49;;;;;;;;;;;;;;;;;;5036808;28;20037;-72
2022/03/22 11:29:19;;;;;;;7.80;5.05;;;;;;;;;;5033659;28;20466;-72
2022/03/22 11:34:31;;;;;;;7.00;5.30;;;;;;;;;;5034598;28;20540;-72
2022/03/22 11:36:58;;;;;;;7.57;5.53;;;;;;;;;;5034380;28;20025;-71
2022/03/22 11:42:16;;;;;;;7.93;5.63;;;;;;;;;;5007118;28;20059;-72
2022/03/22 11:44:42;;;;;;;6.72;5.25;;;;;;;;;;5034211;28;20032;-72
2022/03/22 11:47:14;;;;;;;6.50;5.30;;;;;;;;;;5034250;28;20033;-74
2022/03/22 11:49:51;;;;;;;9.02;5.55;;;;;;;;;;5036614;28;20398;-72
2022/03/22 11:52:18;;;;;;;11.82;5.53;;;;;;;;;;5035527;28;20661;-73
2022/03/22 11:54:58;;;;;;;38.03;10.35;;;;;;;;;;5033024;28;20370;-72
2022/03/22 11:57:24;;;;;;;13.05;6.80;;;;;;;;;;5030816;28;20025;-72
2022/03/22 11:59:54;;;;;;;9.45;5.80;;;;;;;;;;5029820;28;20076;-72
2022/03/22 12:02:28;;;;;;;8.52;6.63;;;;;;;;;;5031831;28;20025;-71
2022/03/22 12:04:56;;;;;;;9.40;5.78;;;;;;;;;;5034532;28;20032;-71
2022/03/22 12:07:23;;;;;;;6.55;5.35;;;;;;;;;;5034585;28;20025;-71
2022/03/22 12:09:49;;;;;;;8.90;5.90;;;;;;;;;;5036076;28;20021;-71
2022/03/22 12:12:16;;;;;;;10.68;6.32;;;;;;;;;;5034613;28;20025;-71
2022/03/22 12:14:45;;;;;;;9.90;5.93;;;;;;;;;;5035206;28;20504;-71
2022/03/22 12:17:11;;;;;;;12.23;6.50;;;;;;;;;;5035831;28;20026;-71
2022/03/22 12:19:37;;;;;;;12.25;6.05;;;;;;;;;;5035660;28;20033;-72
2022/03/22 12:22:08;;;;;;;7.45;5.93;;;;;;;;;;5038194;28;20652;-71
2022/03/22 12:24:35;;;;;;;10.25;6.13;;;;;;;;;;5031441;28;20117;-71
2022/03/22 12:27:02;;;;;;;10.68;6.25;;;;;;;;;;5033538;28;20083;-71
2022/03/22 12:29:28;;;;;;;7.00;5.95;;;;;;;;;;5030727;28;20055;-71
2022/03/22 12:31:55;;;;;;;9.52;6.00;;;;;;;;;;5029836;28;20507;-70
2022/03/22 12:34:26;;;;;;;19.65;9.05;;;;;;;;;;5030703;28;20119;-70
2022/03/22 12:36:52;;;;;;;19.17;9.95;;;;;;;;;;5031199;28;20317;-70
2022/03/22 12:39:18;;;;;;;14.90;8.05;;;;;;;;;;5032365;28;20042;-71
2022/03/22 12:41:45;;;;;;;11.25;6.57;;;;;;;;;;5037364;28;20100;-69
2022/03/22 12:44:11;;;;;;;7.18;5.80;;;;;;;;;;5034696;28;20083;-70
2022/03/22 12:46:37;;;;;;;8.80;6.07;;;;;;;;;;5033324;28;20607;-70
2022/03/22 12:49:05;;;;;;;6.03;5.43;;;;;;;;;;5034327;28;20095;-71
2022/03/22 12:51:31;;;;;;;9.05;6.40;;;;;;;;;;5032357;28;20022;-70
2022/03/22 12:53:58;;;;;;;8.52;6.78;;;;;;;;;;5035168;28;20029;-70
2022/03/22 12:56:25;;;;;;;12.45;6.35;;;;;;;;;;5038574;28;20378;-70
2022/03/22 12:58:52;;;;;;;17.17;8.27;;;;;;;;;;5036766;28;20509;-70
2022/03/22 13:01:19;;;;;;;9.13;6.85;;;;;;;;;;5038147;28;20045;-69
2022/03/22 13:03:45;;;;;;;13.88;6.90;;;;;;;;;;5035348;28;20025;-71
2022/03/22 13:06:12;;;;;;;12.27;6.90;;;;;;;;;;5035622;28;20025;-70
2022/03/22 13:11:32;;;;;;;7.90;5.97;;;;;;;;;;5029343;28;20029;-71
2022/03/22 13:16:50;;;;;;;11.95;6.32;;;;;;;;;;5030396;28;20123;-71
2022/03/22 13:19:17;;;;;;;9.65;6.47;;;;;;;;;;5034660;28;20686;-71
2022/03/22 13:21:44;;;;;;;7.78;6.30;;;;;;;;;;5032080;28;20424;-71
2022/03/22 13:24:17;;;;;;;11.88;6.88;;;;;;;;;;5030326;28;20025;-71
2022/03/22 13:27:01;;;;;;;8.07;6.72;;;;;;;;;;5029271;28;20029;-72
2022/03/22 13:29:35;;;;;;;9.20;6.70;;;;;;;;;;5040159;28;20122;-71
2022/03/22 13:32:02;;;;;;;6.95;6.05;;;;;;;;;;5033991;28;20478;-71
2022/03/22 13:34:29;;;;;;;10.02;6.80;;;;;;;;;;5035920;28;20040;-70
2022/03/22 13:37:14;;;;;;;9.10;6.30;;;;;;;;;;5036892;28;20486;-71
2022/03/22 13:39:42;;;;;;;7.97;6.03;;;;;;;;;;5034807;28;20067;-70
2022/03/22 13:42:13;;;;;;;11.68;6.32;;;;;;;;;;5027006;28;20116;-70
2022/03/22 13:45:00;;;;;;;12.40;6.47;;;;;;;;;;5027894;28;20080;-71
2022/03/22 13:47:29;;;;;;;30.45;8.30;;;;;;;;;;5037439;28;20025;-70
2022/03/22 13:49:56;;;;;;;11.52;6.85;;;;;;;;;;5034617;28;20041;-71
2022/03/22 13:52:25;;;;;;;11.98;7.03;;;;;;;;;;5033399;28;20017;-71
2022/03/22 13:54:54;;;;;;;7.57;5.82;;;;;;;;;;5030948;28;20025;-70
2022/03/22 13:57:24;;;;;;;10.25;6.38;;;;;;;;;;5026216;28;20033;-70
2022/03/22 13:59:56;;;;;;;8.82;6.07;;;;;;;;;;5034508;28;20840;-71
2022/03/22 14:02:23;;;;;;;8.20;5.97;;;;;;;;;;5032236;28;20039;-70
2022/03/22 14:04:49;;;;;;;10.45;6.25;;;;;;;;;;5030827;28;20041;-70
2022/03/22 14:07:15;;;;;;;7.10;6.05;;;;;;;;;;5036458;28;20036;-70
2022/03/22 14:09:41;;;;;;;8.05;6.68;;;;;;;;;;5030205;28;20041;-70
2022/03/22 14:12:08;;;;;;;10.57;6.60;;;;;;;;;;5030102;28;20029;-71
2022/03/22 14:14:34;;;;;;;11.50;6.57;;;;;;;;;;5031661;28;20572;-70
2022/03/22 14:17:00;;;;;;;12.85;7.18;;;;;;;;;;5029460;28;20029;-72
2022/03/22 14:19:26;;;;;;;9.15;6.45;;;;;;;;;;5032774;28;20044;-70
2022/03/22 14:21:52;;;;;;;9.05;6.15;;;;;;;;;;5027394;28;20605;-70
2022/03/22 14:24:18;;;;;;;9.55;6.53;;;;;;;;;;5030889;28;20747;-70
2022/03/22 14:26:44;;;;;;;8.75;6.57;;;;;;;;;;5032796;28;20029;-70
2022/03/22 14:29:11;;;;;;;10.90;6.47;;;;;;;;;;5029663;28;20072;-70
2022/03/22 14:31:39;;;;;;;8.43;7.07;;;;;;;;;;5031442;28;20037;-70
2022/03/22 14:34:05;;;;;;;10.95;6.60;;;;;;;;;;5033996;28;20157;-71
2022/03/22 14:36:31;;;;;;;8.15;6.57;;;;;;;;;;5027377;28;20036;-70
2022/03/22 14:38:57;;;;;;;8.13;6.75;;;;;;;;;;5029498;28;20029;-70
2022/03/22 14:41:27;;;;;;;7.53;6.72;;;;;;;;;;5034151;28;20091;-71
2022/03/22 14:43:54;;;;;;;6.88;5.97;;;;;;;;;;5032013;28;20031;-71
2022/03/22 14:46:21;;;;;;;12.70;6.57;;;;;;;;;;5029774;28;20052;-71
2022/03/22 14:48:49;;;;;;;12.52;6.53;;;;;;;;;;5029699;28;20024;-71
2022/03/22 14:51:17;;;;;;;8.90;6.60;;;;;;;;;;5033670;28;20061;-70
2022/03/22 14:59:13;;;;;;;7.82;6.55;;;;;;;;;;5030326;28;20056;-71
2022/03/22 15:01:39;;;;;;;9.82;6.78;;;;;;;;;;5035894;28;20079;-70
2022/03/22 15:04:05;;;;;;;10.73;7.28;;;;;;;;;;5029939;28;20029;-71
2022/03/22 15:06:32;;;;;;;7.85;6.22;;;;;;;;;;5033426;28;20029;-71
2022/03/22 15:08:58;;;;;;;9.52;6.22;;;;;;;;;;5033061;28;20025;-72
2022/03/22 15:11:25;;;;;;;9.77;6.63;;;;;;;;;;5027094;28;20490;-70
2022/03/22 15:13:51;;;;;;;9.32;6.13;;;;;;;;;;5033290;28;20033;-71
2022/03/22 15:16:20;;;;;;;8.25;7.13;;;;;;;;;;5032334;28;20044;-72
2022/03/22 15:18:47;;;;;;;9.05;6.65;;;;;;;;;;5033707;28;20599;-69
2022/03/22 15:21:13;;;;;;;16.65;6.88;;;;;;;;;;5028374;28;20029;-75
2022/03/22 15:23:39;;;;;;;13.93;7.97;;;;;;;;;;5029918;28;20058;-70
2022/03/22 15:26:06;;;;;;;9.65;6.85;;;;;;;;;;5036060;28;20025;-69
2022/03/22 15:28:34;;;;;;;10.05;7.18;;;;;;;;;;5031312;28;20044;-69